createdAt,value
2017-05-27T00:00:49.234Z,18
2017-05-27T00:01:51.914Z,18
2017-05-27T00:02:54.503Z,18.2
2017-05-27T00:03:56.951Z,17.9
2017-05-27T00:04:59.475Z,18
2017-05-27T00:06:01.961Z,18
2017-05-27T00:07:04.500Z,17.9
2017-05-27T00:08:07.070Z,17.9
2017-05-27T00:09:09.548Z,17.9
2017-05-27T00:10:12.015Z,18
2017-05-27T00:11:14.624Z,18
2017-05-27T00:12:17.196Z,18.2
2017-05-27T00:13:19.724Z,18.2
2017-05-27T00:14:22.267Z,18.1
2017-05-27T00:15:24.832Z,18
2017-05-27T00:16:27.401Z,17.9
2017-05-27T00:17:29.969Z,17.9
2017-05-27T00:18:32.647Z,17.8
2017-05-27T00:19:35.904Z,17.8
2017-05-27T00:20:38.425Z,17.8
2017-05-27T00:21:40.916Z,17.9
2017-05-27T00:22:43.547Z,17.9
2017-05-27T00:23:46.007Z,18
2017-05-27T00:24:48.579Z,17.9
2017-05-27T00:25:51.125Z,18
2017-05-27T00:26:53.660Z,18
2017-05-27T00:27:56.190Z,18
2017-05-27T00:28:58.964Z,18
2017-05-27T00:30:01.471Z,17.9
2017-05-27T00:31:07.426Z,18
2017-05-27T00:32:10.007Z,18.1
2017-05-27T00:33:12.473Z,18
2017-05-27T00:34:14.993Z,18
2017-05-27T00:35:17.548Z,18
2017-05-27T00:36:20.097Z,18
2017-05-27T00:37:22.606Z,18
2017-05-27T00:38:25.802Z,18
2017-05-27T00:39:28.475Z,17.9
2017-05-27T00:40:31.017Z,18
2017-05-27T00:41:33.479Z,18
2017-05-27T00:42:36.029Z,18
2017-05-27T00:43:38.580Z,18
2017-05-27T00:44:41.067Z,17.9
2017-05-27T00:45:43.505Z,17.9
2017-05-27T00:46:45.942Z,18
2017-05-27T00:47:48.480Z,18.1
2017-05-27T00:48:50.996Z,18
2017-05-27T00:49:53.523Z,18.1
2017-05-27T00:50:55.988Z,18
2017-05-27T00:51:58.494Z,17.9
2017-05-27T00:53:01.031Z,18
2017-05-27T00:54:03.577Z,18.2
2017-05-27T00:55:07.860Z,18.1
2017-05-27T00:56:11.259Z,18
2017-05-27T00:57:13.729Z,18.1
2017-05-27T00:58:16.208Z,18
2017-05-27T00:59:19.509Z,18
2017-05-27T01:00:22.066Z,17.9
2017-05-27T01:01:24.700Z,18.1
2017-05-27T01:02:27.242Z,18
2017-05-27T01:03:30.227Z,17.8
2017-05-27T01:04:32.861Z,18.1
2017-05-27T01:05:35.333Z,18.2
2017-05-27T01:06:37.831Z,18.1
2017-05-27T01:07:40.284Z,18
2017-05-27T01:08:42.702Z,18
2017-05-27T01:09:45.140Z,18
2017-05-27T01:10:47.641Z,18
2017-05-27T01:13:01.448Z,18
2017-05-27T01:14:05.324Z,17.8
2017-05-27T01:15:08.614Z,17.9
2017-05-27T01:16:11.580Z,17.9
2017-05-27T01:17:14.051Z,17.9
2017-05-27T01:18:16.633Z,17.7
2017-05-27T01:19:19.180Z,17.7
2017-05-27T01:20:21.649Z,17.5
2017-05-27T01:21:24.182Z,17.5
2017-05-27T01:22:26.739Z,17.5
2017-05-27T01:23:29.300Z,17.5
2017-05-27T01:24:31.901Z,17.6
2017-05-27T01:25:34.472Z,17.8
2017-05-27T01:26:36.935Z,17.5
2017-05-27T01:27:39.399Z,17.5
2017-05-27T01:28:41.892Z,17.6
2017-05-27T01:29:44.352Z,17.6
2017-05-27T01:30:46.850Z,17.5
2017-05-27T01:31:49.374Z,17.4
2017-05-27T01:32:51.849Z,17.5
2017-05-27T01:33:54.307Z,17.4
2017-05-27T01:34:56.747Z,17.4
2017-05-27T01:35:59.219Z,17.3
2017-05-27T01:38:13.064Z,17.4
2017-05-27T01:39:15.624Z,17.3
2017-05-27T01:40:18.254Z,17.4
2017-05-27T01:41:20.786Z,17.4
2017-05-27T01:42:23.692Z,17.4
2017-05-27T01:43:26.357Z,17.4
2017-05-27T01:44:29.630Z,17.3
2017-05-27T01:45:32.452Z,17.3
2017-05-27T01:46:34.981Z,17.4
2017-05-27T01:47:37.522Z,17.2
2017-05-27T01:48:40.003Z,17.2
2017-05-27T01:49:42.519Z,17.3
2017-05-27T01:50:44.976Z,17.2
2017-05-27T01:51:47.624Z,17.3
2017-05-27T01:52:50.078Z,17.3
2017-05-27T01:53:52.537Z,17.3
2017-05-27T01:54:55.005Z,17.3
2017-05-27T01:55:57.585Z,17.3
2017-05-27T01:57:00.059Z,17.4
2017-05-27T01:58:03.323Z,17.4
2017-05-27T01:59:06.687Z,17.4
2017-05-27T02:00:10.061Z,17.4
2017-05-27T02:01:13.411Z,17.4
2017-05-27T02:02:15.935Z,17.5
2017-05-27T02:03:18.485Z,17.5
2017-05-27T02:04:20.985Z,17.4
2017-05-27T02:05:23.503Z,17.1
2017-05-27T02:06:26.033Z,17
2017-05-27T02:07:28.600Z,16.8
2017-05-27T02:08:31.114Z,16.6
2017-05-27T02:09:33.600Z,16.6
2017-05-27T02:10:36.209Z,16.6
2017-05-27T02:11:38.843Z,16.6
2017-05-27T02:12:41.354Z,16.5
2017-05-27T02:13:43.813Z,16.4
2017-05-27T02:14:46.366Z,16.2
2017-05-27T02:15:48.834Z,16.3
2017-05-27T02:16:51.293Z,16.4
2017-05-27T02:17:53.759Z,16.3
2017-05-27T02:18:56.271Z,15.9
2017-05-27T02:19:58.766Z,16.3
2017-05-27T02:21:01.210Z,16.4
2017-05-27T02:22:04.631Z,16.6
2017-05-27T02:23:07.318Z,16.5
2017-05-27T02:24:09.770Z,16.6
2017-05-27T02:25:12.287Z,16.6
2017-05-27T02:26:15.012Z,16.7
2017-05-27T02:27:17.596Z,16.8
2017-05-27T02:28:20.070Z,16.6
2017-05-27T02:29:22.591Z,16.6
2017-05-27T02:30:25.043Z,16.7
2017-05-27T02:31:27.586Z,16.6
2017-05-27T02:32:30.446Z,16.6
2017-05-27T02:33:32.937Z,16.6
2017-05-27T02:34:35.437Z,16.8
2017-05-27T02:35:38.008Z,16.8
2017-05-27T02:36:40.475Z,16.6
2017-05-27T02:37:42.968Z,16.6
2017-05-27T02:38:46.911Z,16.7
2017-05-27T02:39:49.468Z,16.6
2017-05-27T02:40:51.941Z,16.7
2017-05-27T02:41:54.538Z,16.7
2017-05-27T02:42:56.979Z,16.8
2017-05-27T02:43:59.411Z,16.6
2017-05-27T02:45:04.454Z,16.7
2017-05-27T02:46:07.308Z,16.7
2017-05-27T02:47:10.076Z,16.7
2017-05-27T02:48:12.523Z,16.7
2017-05-27T02:49:15.081Z,16.5
2017-05-27T02:50:17.747Z,16.2
2017-05-27T02:51:20.582Z,16
2017-05-27T02:52:23.129Z,16.1
2017-05-27T02:53:25.669Z,16
2017-05-27T02:54:28.238Z,15.9
2017-05-27T02:55:30.791Z,16.2
2017-05-27T02:56:33.305Z,16
2017-05-27T02:57:35.780Z,16.1
2017-05-27T02:58:38.242Z,16.4
2017-05-27T02:59:40.676Z,16.3
2017-05-27T03:00:43.266Z,16.4
2017-05-27T03:01:45.791Z,16.5
2017-05-27T03:02:48.361Z,16.4
2017-05-27T03:03:50.831Z,16.3
2017-05-27T03:04:53.333Z,16.4
2017-05-27T03:05:56.227Z,16.4
2017-05-27T03:06:58.788Z,16.5
2017-05-27T03:08:01.226Z,16.3
2017-05-27T03:09:04.456Z,16.4
2017-05-27T03:10:07.657Z,16.2
2017-05-27T03:11:10.591Z,16.2
2017-05-27T03:12:13.133Z,16.1
2017-05-27T03:13:15.657Z,16.2
2017-05-27T03:14:18.638Z,16
2017-05-27T03:15:21.252Z,15.9
2017-05-27T03:16:23.765Z,16.1
2017-05-27T03:18:37.882Z,16
2017-05-27T03:19:40.350Z,16.1
2017-05-27T03:20:42.843Z,16
2017-05-27T03:21:45.330Z,15.9
2017-05-27T03:22:47.791Z,15.9
2017-05-27T03:23:50.254Z,16
2017-05-27T03:24:52.686Z,16
2017-05-27T03:25:55.184Z,16
2017-05-27T03:26:57.692Z,16.1
2017-05-27T03:28:00.214Z,16
2017-05-27T03:29:02.778Z,15.9
2017-05-27T03:30:07.718Z,15.7
2017-05-27T03:31:11.078Z,15.9
2017-05-27T03:32:14.239Z,16
2017-05-27T03:33:17.757Z,16
2017-05-27T03:34:20.347Z,15.9
2017-05-27T03:35:22.810Z,15.8
2017-05-27T03:36:25.259Z,15.5
2017-05-27T03:37:28.056Z,15.6
2017-05-27T03:38:30.558Z,15.6
2017-05-27T03:39:33.038Z,15.8
2017-05-27T03:40:35.520Z,15.9
2017-05-27T03:41:38.773Z,15.8
2017-05-27T03:42:41.213Z,15.8
2017-05-27T03:43:43.657Z,15.7
2017-05-27T03:44:46.051Z,15.4
2017-05-27T03:45:48.491Z,15.5
2017-05-27T03:46:50.956Z,15.6
2017-05-27T03:47:53.420Z,15.6
2017-05-27T03:48:55.981Z,15.7
2017-05-27T03:49:58.516Z,15.8
2017-05-27T03:51:00.986Z,15.8
2017-05-27T03:52:03.500Z,15.8
2017-05-27T03:53:06.613Z,15.8
2017-05-27T03:54:09.074Z,15.8
2017-05-27T03:55:12.122Z,15.7
2017-05-27T03:56:14.727Z,15.7
2017-05-27T03:57:17.162Z,15.8
2017-05-27T03:58:20.279Z,15.8
2017-05-27T03:59:23.562Z,15.9
2017-05-27T04:00:26.240Z,16
2017-05-27T04:01:28.764Z,15.8
2017-05-27T04:02:31.319Z,15.8
2017-05-27T04:03:33.739Z,15.8
2017-05-27T04:04:36.223Z,15.9
2017-05-27T04:05:39.319Z,15.9
2017-05-27T04:06:41.846Z,15.7
2017-05-27T04:07:44.285Z,15.6
2017-05-27T04:08:46.823Z,15.8
2017-05-27T04:09:49.281Z,15.9
2017-05-27T04:10:51.793Z,15.9
2017-05-27T04:11:54.272Z,15.8
2017-05-27T04:12:56.735Z,15.9
2017-05-27T04:13:59.428Z,15.9
2017-05-27T04:15:01.980Z,15.9
2017-05-27T04:16:05.372Z,16
2017-05-27T04:17:07.920Z,16
2017-05-27T04:18:10.518Z,15.9
2017-05-27T04:19:13.036Z,16
2017-05-27T04:20:15.681Z,16.1
2017-05-27T04:21:19.130Z,16.1
2017-05-27T04:22:21.874Z,16.1
2017-05-27T04:23:24.334Z,16.1
2017-05-27T04:24:27.263Z,16.1
2017-05-27T04:25:29.753Z,16.2
2017-05-27T04:26:32.300Z,16.3
2017-05-27T04:27:34.778Z,16.2
2017-05-27T04:28:37.223Z,16.1
2017-05-27T04:29:39.849Z,16
2017-05-27T04:30:42.315Z,16.1
2017-05-27T04:31:45.844Z,16
2017-05-27T04:32:48.359Z,16.3
2017-05-27T04:33:50.796Z,16.3
2017-05-27T04:34:53.400Z,16.1
2017-05-27T04:35:55.864Z,16.1
2017-05-27T04:36:58.562Z,16.2
2017-05-27T04:38:01.027Z,16.3
2017-05-27T04:39:03.462Z,16.3
2017-05-27T04:40:05.983Z,16.4
2017-05-27T04:41:08.614Z,16.4
2017-05-27T04:42:11.035Z,16.5
2017-05-27T04:43:13.530Z,16.5
2017-05-27T04:44:16.268Z,16.5
2017-05-27T04:45:18.809Z,16.5
2017-05-27T04:46:21.508Z,16.6
2017-05-27T04:47:24.997Z,16.7
2017-05-27T04:48:27.547Z,16.7
2017-05-27T04:49:30.038Z,16.7
2017-05-27T04:50:32.534Z,16.6
2017-05-27T04:51:35.018Z,16.5
2017-05-27T04:52:37.480Z,16.4
2017-05-27T04:53:39.930Z,16.5
2017-05-27T04:54:42.387Z,16.6
2017-05-27T04:55:44.898Z,16.7
2017-05-27T04:56:47.341Z,16.8
2017-05-27T04:57:49.798Z,16.7
2017-05-27T04:58:52.262Z,16.8
2017-05-27T04:59:54.792Z,16.9
2017-05-27T05:00:57.246Z,17
2017-05-27T05:01:59.692Z,16.9
2017-05-27T05:03:02.122Z,17
2017-05-27T05:04:04.624Z,17.1
2017-05-27T05:05:07.445Z,17.2
2017-05-27T05:06:09.938Z,17.2
2017-05-27T05:07:12.478Z,17.2
2017-05-27T05:08:14.960Z,17.3
2017-05-27T05:09:17.502Z,17.4
2017-05-27T05:10:20.197Z,17.4
2017-05-27T05:11:24.493Z,17.1
2017-05-27T05:12:27.288Z,17.2
2017-05-27T05:13:29.940Z,17.4
2017-05-27T05:14:32.374Z,17.3
2017-05-27T05:15:34.834Z,17.4
2017-05-27T05:16:37.297Z,17.7
2017-05-27T05:17:39.789Z,17.6
2017-05-27T05:18:42.238Z,17.7
2017-05-27T05:19:44.706Z,17.6
2017-05-27T05:20:47.210Z,17.6
2017-05-27T05:21:54.644Z,17.8
2017-05-27T05:22:57.069Z,17.6
2017-05-27T05:23:59.644Z,17.7
2017-05-27T05:25:04.296Z,17.9
2017-05-27T05:26:06.762Z,18
2017-05-27T05:27:09.255Z,18.2
2017-05-27T05:28:11.769Z,18.3
2017-05-27T05:29:19.675Z,18.4
2017-05-27T05:30:22.192Z,18.6
2017-05-27T05:31:25.244Z,18.5
2017-05-27T05:32:27.676Z,18.8
2017-05-27T05:33:30.202Z,18.9
2017-05-27T05:34:32.631Z,18.9
2017-05-27T05:35:35.804Z,19.1
2017-05-27T05:36:38.579Z,18.9
2017-05-27T05:37:41.705Z,18.9
2017-05-27T05:38:44.160Z,18.9
2017-05-27T05:39:46.680Z,19.1
2017-05-27T05:40:49.186Z,19
2017-05-27T05:41:51.622Z,19.2
2017-05-27T05:42:54.771Z,19.3
2017-05-27T05:43:58.202Z,19.5
2017-05-27T05:45:01.928Z,19.4
2017-05-27T05:46:07.445Z,19.7
2017-05-27T05:47:10.633Z,20.1
2017-05-27T05:48:13.131Z,20.2
2017-05-27T05:49:15.637Z,19.9
2017-05-27T05:50:22.336Z,20.2
2017-05-27T05:52:36.239Z,20.6
2017-05-27T05:53:38.737Z,20.9
2017-05-27T05:54:42.869Z,20.9
2017-05-27T05:55:45.370Z,21
2017-05-27T05:56:47.863Z,21.3
2017-05-27T05:57:50.377Z,21.1
2017-05-27T05:58:52.895Z,21.1
2017-05-27T05:59:55.948Z,20.6
2017-05-27T06:00:58.480Z,20.9
2017-05-27T06:02:00.956Z,21.3
2017-05-27T06:03:03.678Z,21.3
2017-05-27T06:04:06.179Z,21.6
2017-05-27T06:05:09.539Z,21.6
2017-05-27T06:06:12.132Z,21.8
2017-05-27T06:07:14.723Z,21.7
2017-05-27T06:08:18.147Z,21.5
2017-05-27T06:09:20.636Z,21.8
2017-05-27T06:10:23.213Z,21.8
2017-05-27T06:11:29.635Z,21.8
2017-05-27T06:12:32.168Z,21.6
2017-05-27T06:13:34.639Z,21.8
2017-05-27T06:14:37.176Z,22.1
2017-05-27T06:15:39.733Z,22.6
2017-05-27T06:16:42.140Z,22.7
2017-05-27T06:17:44.633Z,23.2
2017-05-27T06:18:47.078Z,22.8
2017-05-27T06:19:49.609Z,22.9
2017-05-27T06:20:52.146Z,22.1
2017-05-27T06:21:55.532Z,21.6
2017-05-27T06:22:58.057Z,22.3
2017-05-27T06:24:00.580Z,22.7
2017-05-27T06:25:05.241Z,23
2017-05-27T06:26:08.675Z,23.7
2017-05-27T06:27:11.612Z,23.7
2017-05-27T06:28:14.094Z,23.5
2017-05-27T06:29:18.548Z,23.7
2017-05-27T06:30:21.107Z,24.1
2017-05-27T06:31:23.651Z,24.6
2017-05-27T06:32:26.204Z,24.6
2017-05-27T06:33:28.795Z,25
2017-05-27T06:34:31.245Z,25.2
2017-05-27T06:35:33.726Z,24.7
2017-05-27T06:36:36.841Z,25.9
2017-05-27T06:37:39.428Z,26.4
2017-05-27T06:38:41.937Z,26.9
2017-05-27T06:39:44.959Z,26.5
2017-05-27T06:40:47.483Z,25.7
2017-05-27T06:41:50.085Z,25.5
2017-05-27T06:42:52.678Z,26
2017-05-27T06:43:55.337Z,26.5
2017-05-27T06:44:57.801Z,26.7
2017-05-27T06:46:00.468Z,26.8
2017-05-27T06:47:03.169Z,26.3
2017-05-27T06:48:05.891Z,25.6
2017-05-27T06:49:08.524Z,25.8
2017-05-27T06:50:14.357Z,25.7
2017-05-27T06:51:18.210Z,25.9
2017-05-27T06:52:22.479Z,26.6
2017-05-27T06:53:25.619Z,26.2
2017-05-27T06:54:28.235Z,26.6
2017-05-27T06:55:30.877Z,26
2017-05-27T06:56:33.527Z,26.4
2017-05-27T06:57:37.142Z,27.1
2017-05-27T06:58:39.685Z,26
2017-05-27T06:59:43.521Z,25.9
2017-05-27T07:00:46.811Z,26.2
2017-05-27T07:01:51.054Z,26.4
2017-05-27T07:02:54.427Z,26.4
2017-05-27T07:03:56.919Z,26.2
2017-05-27T07:04:59.433Z,26.2
2017-05-27T07:06:02.094Z,26.7
2017-05-27T07:07:04.692Z,26.5
2017-05-27T07:08:08.183Z,26.8
2017-05-27T07:09:10.853Z,27.3
2017-05-27T07:10:13.622Z,27.4
2017-05-27T07:11:17.923Z,25.9
2017-05-27T07:12:20.483Z,25.8
2017-05-27T07:13:23.059Z,26
2017-05-27T07:14:25.599Z,26.5
2017-05-27T07:15:28.810Z,26.8
2017-05-27T07:16:35.492Z,26.8
2017-05-27T07:17:39.185Z,27.8
2017-05-27T07:18:41.814Z,26.7
2017-05-27T07:19:44.300Z,27.2
2017-05-27T07:20:46.887Z,26.8
2017-05-27T07:21:49.537Z,27
2017-05-27T07:22:52.037Z,27.4
2017-05-27T07:23:54.567Z,26.8
2017-05-27T07:24:57.072Z,27.1
2017-05-27T07:26:00.673Z,27.5
2017-05-27T07:27:06.390Z,25.9
2017-05-27T07:28:10.976Z,26.5
2017-05-27T07:29:14.559Z,26.6
2017-05-27T07:30:19.510Z,27.1
2017-05-27T07:31:23.117Z,27.8
2017-05-27T07:32:26.504Z,26.4
2017-05-27T07:33:29.101Z,25.9
2017-05-27T07:34:31.602Z,25.8
2017-05-27T07:35:36.086Z,27.2
2017-05-27T07:36:38.843Z,26.4
2017-05-27T07:37:42.647Z,26.2
2017-05-27T07:38:45.302Z,27.3
2017-05-27T07:39:48.652Z,27
2017-05-27T07:40:51.266Z,26.8
2017-05-27T07:41:53.791Z,26
2017-05-27T07:42:56.385Z,26
2017-05-27T07:43:59.800Z,26.5
2017-05-27T07:45:04.579Z,26.9
2017-05-27T07:47:16.090Z,27.1
2017-05-27T07:48:19.619Z,26.8
2017-05-27T07:49:22.863Z,26.9
2017-05-27T07:50:27.752Z,26.7
2017-05-27T07:51:30.580Z,26.7
2017-05-27T07:52:34.276Z,26.9
2017-05-27T07:53:36.957Z,26.4
2017-05-27T07:54:40.026Z,26.3
2017-05-27T07:55:44.034Z,26.2
2017-05-27T07:56:47.547Z,26
2017-05-27T07:57:54.654Z,25.7
2017-05-27T07:58:57.364Z,26.1
2017-05-27T08:00:00.183Z,25.6
2017-05-27T08:01:13.288Z,25.5
2017-05-27T08:02:17.125Z,25.5
2017-05-27T08:03:20.083Z,25.6
2017-05-27T08:04:23.920Z,25.8
2017-05-27T08:05:30.700Z,25.8
2017-05-27T08:06:34.821Z,25.7
2017-05-27T08:07:38.183Z,25.9
2017-05-27T08:08:41.139Z,26.1
2017-05-27T08:09:45.234Z,26.4
2017-05-27T08:10:51.093Z,26
2017-05-27T08:11:54.495Z,26.5
2017-05-27T08:12:57.790Z,26.2
2017-05-27T08:14:00.533Z,26.3
2017-05-27T08:15:08.939Z,26.5
2017-05-27T08:16:13.019Z,25.9
2017-05-27T08:17:16.332Z,26.3
2017-05-27T08:18:19.171Z,26.5
2017-05-27T08:19:22.545Z,26.1
2017-05-27T08:20:25.249Z,26.1
2017-05-27T08:21:28.334Z,26.1
2017-05-27T08:22:34.409Z,26.2
2017-05-27T08:23:37.373Z,26.4
2017-05-27T08:24:42.458Z,27
2017-05-27T08:25:45.214Z,27
2017-05-27T08:26:49.235Z,26.3
2017-05-27T08:27:52.009Z,26.3
2017-05-27T08:28:55.184Z,26.4
2017-05-27T08:29:57.832Z,26.3
2017-05-27T08:31:02.483Z,26.3
2017-05-27T08:32:09.244Z,25.9
2017-05-27T08:33:12.633Z,26.3
2017-05-27T08:34:18.247Z,26.5
2017-05-27T08:35:25.222Z,26.5
2017-05-27T08:36:28.336Z,26.5
2017-05-27T08:37:32.014Z,26.5
2017-05-27T08:38:35.410Z,26.5
2017-05-27T08:39:38.633Z,26.5
2017-05-27T08:40:42.112Z,26.3
2017-05-27T08:41:46.086Z,26.7
2017-05-27T08:42:48.964Z,27.3
2017-05-27T08:43:51.543Z,27.2
2017-05-27T08:44:54.741Z,27.3
2017-05-27T08:45:58.469Z,27
2017-05-27T08:47:02.154Z,27.2
2017-05-27T08:48:09.439Z,27
2017-05-27T08:49:12.152Z,27.1
2017-05-27T08:50:16.637Z,27.3
2017-05-27T08:51:23.136Z,27.4
2017-05-27T08:52:29.694Z,27.6
2017-05-27T08:53:33.834Z,27.8
2017-05-27T08:54:40.454Z,27.6
2017-05-27T08:55:47.253Z,27.9
2017-05-27T08:56:59.075Z,27.7
2017-05-27T08:58:08.176Z,28.4
2017-05-27T08:59:11.706Z,28.3
2017-05-27T09:00:18.646Z,28
2017-05-27T09:01:24.490Z,27.5
2017-05-27T09:02:28.021Z,27.6
2017-05-27T09:03:31.248Z,28.1
2017-05-27T09:04:33.969Z,28.1
2017-05-27T09:05:37.445Z,28.1
2017-05-27T09:06:42.468Z,27.9
2017-05-27T09:07:53.164Z,28.2
2017-05-27T09:08:55.954Z,28.3
2017-05-27T09:09:58.786Z,28.3
2017-05-27T09:11:05.433Z,28.3
2017-05-27T09:12:08.582Z,28.5
2017-05-27T09:13:11.961Z,28.5
2017-05-27T09:14:14.933Z,28.6
2017-05-27T09:15:19.010Z,28.1
2017-05-27T09:16:22.362Z,28
2017-05-27T09:17:25.160Z,28.3
2017-05-27T09:18:33.691Z,28.6
2017-05-27T09:19:38.975Z,28.3
2017-05-27T09:20:42.846Z,28.2
2017-05-27T09:21:47.549Z,28.7
2017-05-27T09:22:53.103Z,28.7
2017-05-27T09:23:56.371Z,28.9
2017-05-27T09:24:59.319Z,28.5
2017-05-27T09:26:02.684Z,28.8
2017-05-27T09:28:20.158Z,28.1
2017-05-27T09:29:26.321Z,28.3
2017-05-27T09:30:30.843Z,28.6
2017-05-27T09:31:34.094Z,28.5
2017-05-27T09:32:38.939Z,28.9
2017-05-27T09:33:44.548Z,29.1
2017-05-27T09:34:49.658Z,29.2
2017-05-27T09:35:52.595Z,29.3
2017-05-27T09:36:56.818Z,28.9
2017-05-27T09:38:01.199Z,28.7
2017-05-27T09:39:08.514Z,29.1
2017-05-27T09:40:14.082Z,28.9
2017-05-27T09:41:20.086Z,28.6
2017-05-27T09:42:27.650Z,28.7
2017-05-27T09:43:31.598Z,28.6
2017-05-27T09:44:36.135Z,29.1
2017-05-27T09:46:50.104Z,29.1
2017-05-27T09:47:52.888Z,28.8
2017-05-27T09:48:55.635Z,29.1
2017-05-27T09:49:58.583Z,29.3
2017-05-27T09:51:01.385Z,28.9
2017-05-27T09:52:07.897Z,29
2017-05-27T09:53:13.064Z,28.8
2017-05-27T09:54:18.626Z,29
2017-05-27T09:55:21.700Z,29.3
2017-05-27T09:56:32.718Z,29.6
2017-05-27T09:57:36.835Z,29.7
2017-05-27T09:58:41.973Z,29.9
2017-05-27T09:59:45.092Z,29.7
2017-05-27T10:00:51.858Z,29.4
2017-05-27T10:01:54.703Z,29.4
2017-05-27T10:02:57.515Z,29.7
2017-05-27T10:04:00.853Z,29.6
2017-05-27T10:06:23.891Z,29.3
2017-05-27T10:07:27.499Z,29.8
2017-05-27T10:08:32.579Z,29.6
2017-05-27T10:09:36.725Z,29.7
2017-05-27T10:10:41.484Z,28.6
2017-05-27T10:11:44.584Z,29
2017-05-27T10:12:48.038Z,29.4
2017-05-27T10:13:50.836Z,29.8
2017-05-27T10:14:53.610Z,29
2017-05-27T10:15:59.043Z,29.3
2017-05-27T10:17:02.057Z,29
2017-05-27T10:18:10.513Z,28.4
2017-05-27T10:19:18.158Z,29.1
2017-05-27T10:20:22.382Z,29.6
2017-05-27T10:21:29.642Z,29.7
2017-05-27T10:22:33.856Z,30.1
2017-05-27T10:23:38.438Z,30.2
2017-05-27T10:24:43.693Z,29.9
2017-05-27T10:25:48.328Z,28.9
2017-05-27T10:26:51.283Z,28.5
2017-05-27T10:27:54.109Z,27.7
2017-05-27T10:28:57.574Z,27.2
2017-05-27T10:30:01.156Z,27.8
2017-05-27T10:31:12.911Z,28.5
2017-05-27T10:32:16.377Z,29.1
2017-05-27T10:33:19.930Z,28.5
2017-05-27T10:34:23.288Z,28.4
2017-05-27T10:35:26.966Z,27.7
2017-05-27T10:36:32.596Z,28.1
2017-05-27T10:37:37.260Z,28
2017-05-27T10:38:40.069Z,27.7
2017-05-27T10:39:42.808Z,28.4
2017-05-27T10:40:49.462Z,27.5
2017-05-27T10:41:54.106Z,27.2
2017-05-27T10:42:57.706Z,27.5
2017-05-27T10:44:00.533Z,27.6
2017-05-27T10:46:14.601Z,27
2017-05-27T10:47:20.896Z,26.8
2017-05-27T10:48:24.434Z,26.8
2017-05-27T10:49:28.776Z,26.7
2017-05-27T10:50:31.632Z,26.8
2017-05-27T10:51:43.681Z,26.6
2017-05-27T10:52:48.459Z,26.6
2017-05-27T10:53:51.796Z,27.3
2017-05-27T10:54:54.478Z,27.6
2017-05-27T10:55:59.067Z,28.4
2017-05-27T10:57:01.984Z,28.1
2017-05-27T10:58:11.909Z,27.4
2017-05-27T10:59:16.995Z,28
2017-05-27T11:00:24.314Z,28.1
2017-05-27T11:01:30.134Z,28.1
2017-05-27T11:02:33.066Z,28.2
2017-05-27T11:03:38.665Z,28.3
2017-05-27T11:04:41.432Z,27.9
2017-05-27T11:05:45.046Z,28.2
2017-05-27T11:06:49.934Z,28.3
2017-05-27T11:07:54.347Z,27.6
2017-05-27T11:08:57.366Z,27.4
2017-05-27T11:10:01.061Z,26.8
2017-05-27T11:11:13.735Z,27
2017-05-27T11:12:19.366Z,26.8
2017-05-27T11:13:26.272Z,27.1
2017-05-27T11:14:34.483Z,27.1
2017-05-27T11:15:38.690Z,27.5
2017-05-27T11:16:43.209Z,27.2
2017-05-27T11:17:49.801Z,27.7
2017-05-27T11:18:52.630Z,27.3
2017-05-27T11:19:56.116Z,27.2
2017-05-27T11:21:00.981Z,26.8
2017-05-27T11:23:12.091Z,27.8
2017-05-27T11:24:20.960Z,27.8
2017-05-27T11:25:23.920Z,27.6
2017-05-27T11:26:30.188Z,27.5
2017-05-27T11:27:36.011Z,27.9
2017-05-27T11:28:41.069Z,28.4
2017-05-27T11:29:43.804Z,28.1
2017-05-27T11:30:47.102Z,28.4
2017-05-27T11:31:50.079Z,28.5
2017-05-27T11:34:05.599Z,28.2
2017-05-27T11:35:19.512Z,27.5
2017-05-27T11:36:22.904Z,27.5
2017-05-27T11:37:26.885Z,27.2
2017-05-27T11:38:31.178Z,27.5
2017-05-27T11:39:33.878Z,27.6
2017-05-27T11:40:36.720Z,27.4
2017-05-27T11:41:40.255Z,27
2017-05-27T11:42:43.178Z,27.1
2017-05-27T11:43:47.160Z,27
2017-05-27T11:44:50.056Z,26.9
2017-05-27T11:45:53.979Z,27
2017-05-27T11:46:56.661Z,27
2017-05-27T11:48:00.324Z,27.7
2017-05-27T11:49:04.413Z,28
2017-05-27T11:50:12.399Z,27.6
2017-05-27T11:51:20.344Z,27.9
2017-05-27T11:52:23.922Z,27.7
2017-05-27T11:53:28.452Z,27.5
2017-05-27T11:54:34.882Z,27.2
2017-05-27T11:55:39.379Z,27.1
2017-05-27T11:56:43.868Z,26.6
2017-05-27T11:57:47.768Z,26.7
2017-05-27T11:58:51.094Z,26.9
2017-05-27T11:59:53.843Z,27.2
2017-05-27T12:00:59.034Z,27
2017-05-27T12:02:01.764Z,27
2017-05-27T12:03:06.385Z,26.8
2017-05-27T12:04:10.023Z,27
2017-05-27T12:05:13.533Z,27.1
2017-05-27T12:06:17.753Z,26.8
2017-05-27T12:07:22.154Z,26.9
2017-05-27T12:08:24.958Z,26.5
2017-05-27T12:09:29.390Z,26.3
2017-05-27T12:10:33.929Z,26.7
2017-05-27T12:11:39.440Z,27
2017-05-27T12:13:57.411Z,26.9
2017-05-27T12:15:00.351Z,27.1
2017-05-27T12:16:11.303Z,27.4
2017-05-27T12:17:14.160Z,26.7
2017-05-27T12:18:19.502Z,26.9
2017-05-27T12:19:23.972Z,26.8
2017-05-27T12:20:31.973Z,26.7
2017-05-27T12:21:37.904Z,26.8
2017-05-27T12:22:47.222Z,27.2
2017-05-27T12:23:54.082Z,27
2017-05-27T12:25:00.530Z,27.3
2017-05-27T12:27:34.264Z,27.3
2017-05-27T12:28:38.598Z,26.5
2017-05-27T12:29:42.710Z,26.8
2017-05-27T12:30:48.580Z,27.2
2017-05-27T12:31:54.056Z,27.5
2017-05-27T12:33:01.307Z,27.3
2017-05-27T12:34:11.820Z,26.7
2017-05-27T12:35:17.349Z,26.6
2017-05-27T12:36:22.068Z,27.1
2017-05-27T12:37:24.756Z,27.4
2017-05-27T12:38:30.300Z,27.7
2017-05-27T12:39:33.764Z,27.7
2017-05-27T12:40:38.509Z,27.4
2017-05-27T12:41:45.266Z,27
2017-05-27T12:42:48.807Z,26.9
2017-05-27T12:43:52.633Z,26.8
2017-05-27T12:44:56.087Z,26.8
2017-05-27T12:46:05.836Z,27.2
2017-05-27T12:47:16.015Z,27.3
2017-05-27T12:48:20.698Z,27.2
2017-05-27T12:49:24.411Z,27.1
2017-05-27T12:50:29.351Z,27.3
2017-05-27T12:51:33.164Z,26.4
2017-05-27T12:52:36.673Z,26.8
2017-05-27T12:53:41.311Z,26.9
2017-05-27T12:54:46.406Z,27.1
2017-05-27T12:56:59.952Z,27.4
2017-05-27T12:58:08.120Z,27.2
2017-05-27T12:59:10.922Z,27.2
2017-05-27T13:00:22.406Z,26.9
2017-05-27T13:01:26.476Z,26.8
2017-05-27T13:02:30.571Z,26.7
2017-05-27T13:03:41.333Z,26.7
2017-05-27T13:04:47.895Z,26.8
2017-05-27T13:05:53.336Z,26.9
2017-05-27T13:06:57.772Z,26.8
2017-05-27T13:08:00.585Z,26.7
2017-05-27T13:10:18.396Z,26.8
2017-05-27T13:11:24.204Z,26.7
2017-05-27T13:12:29.672Z,26.8
2017-05-27T13:13:36.866Z,27
2017-05-27T13:14:45.118Z,27.1
2017-05-27T13:15:53.262Z,26.6
2017-05-27T13:16:56.226Z,26.7
2017-05-27T13:17:59.642Z,26.8
2017-05-27T13:19:02.478Z,26.9
2017-05-27T13:20:15.004Z,26.9
2017-05-27T13:21:21.723Z,27
2017-05-27T13:22:25.256Z,26.9
2017-05-27T13:23:29.051Z,26.6
2017-05-27T13:24:35.362Z,26.6
2017-05-27T13:25:39.180Z,26.1
2017-05-27T13:26:45.435Z,26.7
2017-05-27T13:27:51.759Z,27
2017-05-27T13:29:00.198Z,27.1
2017-05-27T13:31:26.136Z,27.2
2017-05-27T13:32:31.386Z,27.2
2017-05-27T13:33:34.243Z,27.1
2017-05-27T13:34:38.667Z,27
2017-05-27T13:35:41.880Z,26.8
2017-05-27T13:36:52.019Z,26.9
2017-05-27T13:38:00.913Z,27.1
2017-05-27T13:39:07.061Z,27.1
2017-05-27T13:40:17.545Z,26.7
2017-05-27T13:42:35.316Z,27.3
2017-05-27T13:43:39.973Z,26.7
2017-05-27T13:44:46.357Z,26.8
2017-05-27T13:45:51.325Z,26.6
2017-05-27T13:46:54.884Z,26.6
2017-05-27T13:47:57.904Z,26.8
2017-05-27T13:49:00.834Z,27
2017-05-27T13:50:15.062Z,27.1
2017-05-27T13:51:22.591Z,26.9
2017-05-27T13:52:27.006Z,27
2017-05-27T13:53:33.278Z,27.1
2017-05-27T13:54:42.906Z,27.2
2017-05-27T13:55:52.035Z,27.1
2017-05-27T13:56:59.589Z,26.9
2017-05-27T13:58:11.031Z,26.8
2017-05-27T13:59:22.951Z,26.9
2017-05-27T14:01:41.779Z,26.9
2017-05-27T14:02:45.103Z,27
2017-05-27T14:03:54.070Z,27.1
2017-05-27T14:05:01.686Z,27
2017-05-27T14:06:16.724Z,26.7
2017-05-27T14:07:25.549Z,26.8
2017-05-27T14:08:29.854Z,26.8
2017-05-27T14:09:36.787Z,26.6
2017-05-27T14:10:44.353Z,26.8
2017-05-27T14:11:54.762Z,26.6
2017-05-27T14:13:03.789Z,26.5
2017-05-27T14:14:13.502Z,26.6
2017-05-27T14:16:31.259Z,26.5
2017-05-27T14:17:44.639Z,26.6
2017-05-27T14:18:57.467Z,26.6
2017-05-27T14:21:32.067Z,26.4
2017-05-27T14:22:53.608Z,26.3
2017-05-27T14:24:15.184Z,26.4
2017-05-27T14:26:49.453Z,26.8
2017-05-27T14:29:18.501Z,26.8
2017-05-27T14:30:31.183Z,26.6
2017-05-27T14:31:51.654Z,26.4
2017-05-27T14:34:33.468Z,26.6
2017-05-27T14:35:44.970Z,26.4
2017-05-27T14:37:00.487Z,26.8
2017-05-27T14:38:20.999Z,26.8
2017-05-27T14:39:28.513Z,26.6
2017-05-27T14:40:38.207Z,26.8
2017-05-27T14:41:47.450Z,26.8
2017-05-27T14:42:52.007Z,26.7
2017-05-27T14:43:56.464Z,26.7
2017-05-27T14:44:59.398Z,26.5
2017-05-27T14:46:08.908Z,26.4
2017-05-27T14:47:19.162Z,26.7
2017-05-27T14:48:36.621Z,26.8